Portada
METAR-TAF:

METAR-TAF

Aeroports :

Manado, Indonèsia

latitud: 01-32N, longitud: 124-55E, altitud: 80 m

Observació

L'informe es va fer fa 23 minuts, a les 23:30 UTC
Vent calma
Temperatura 27°C
Humitat 89%
Pressió 1014 hPa
Visibilitat 10 km o més
Núvols disperses a una alçada de 2100 ft

METAR: WAMM 292330Z 00000KT 9999 SCT021 27/25 Q1014 NOSIG

Hora: 06:53 (23:53 UTC)

Pronòstic

L'informe es va fer fa 6 hores i 53 minuts, a les 17:00 UTC
Pronòstic vàlid del 29 a les 18 UTC al 30 a les 24 UTC
Vent 5 kt del Est/Sud-Est
Visibilitat: 9000 m
Núvols disperses a una alçada de 2000 ft
Temporalment
l' 29 a les 18 UTC al 29 a les 22 UTC
Visibilitat: 4000 m
Escasses núvols a una alçada de 1600 ft, Cumulonimbus.
tempesta, pluja

TAF: WAMM 291700Z 2918/3024 11005KT 9000 SCT020 TEMPO 2918/2922 4000 TSRA FEW016CB

Observacions i pronòstics meteorològics de més de 4000 aeroports (METAR i TAF).

Les estacions disponibles són els punts grocs i vermells al mapa.

Posi el ratolí al punt desitjat per veure el nom de l'estació.

Feu clic per veure les observacions i els pronòstics meteorològics.

Per canviar el mapa: feu clic els botons verds amb una creu de color negre per apropar; al botó verd amb un guió per allunyar la imatge; o en les fletxes verdes per a mapes adjacents.


METAR-TAF: